sensor_id;sensor_type;location;lat;lon;timestamp;pressure;altitude;pressure_sealevel;temperature;humidity
21623;BME280;10973;46.706;12.340;2023-02-23T00:00:28;86994.81;;;4.82;51.35
21623;BME280;10973;46.706;12.340;2023-02-23T00:02:58;86996.63;;;4.78;51.81
21623;BME280;10973;46.706;12.340;2023-02-23T00:05:35;86994.00;;;4.78;51.60
21623;BME280;10973;46.706;12.340;2023-02-23T00:08:03;86990.22;;;4.76;51.84
21623;BME280;10973;46.706;12.340;2023-02-23T00:14:30;86987.56;;;4.72;52.06
21623;BME280;10973;46.706;12.340;2023-02-23T00:16:57;86988.03;;;4.78;52.33
21623;BME280;10973;46.706;12.340;2023-02-23T00:19:25;86982.88;;;4.81;52.32
21623;BME280;10973;46.706;12.340;2023-02-23T00:21:53;86986.22;;;4.82;52.12
21623;BME280;10973;46.706;12.340;2023-02-23T00:24:21;86985.06;;;4.79;52.06
21623;BME280;10973;46.706;12.340;2023-02-23T00:26:48;86986.59;;;4.80;52.12
21623;BME280;10973;46.706;12.340;2023-02-23T00:29:23;86993.66;;;4.80;51.83
21623;BME280;10973;46.706;12.340;2023-02-23T00:31:51;86983.22;;;4.80;51.63
21623;BME280;10973;46.706;12.340;2023-02-23T00:34:20;86992.97;;;4.83;51.84
21623;BME280;10973;46.706;12.340;2023-02-23T00:36:53;86992.47;;;4.77;51.82
21623;BME280;10973;46.706;12.340;2023-02-23T00:39:21;86992.44;;;4.74;51.74
21623;BME280;10973;46.706;12.340;2023-02-23T00:41:50;86990.09;;;4.69;51.80
21623;BME280;10973;46.706;12.340;2023-02-23T00:44:20;86986.00;;;4.68;52.06
21623;BME280;10973;46.706;12.340;2023-02-23T00:46:49;86986.00;;;4.68;51.77
21623;BME280;10973;46.706;12.340;2023-02-23T00:49:18;86990.31;;;4.60;51.95
21623;BME280;10973;46.706;12.340;2023-02-23T00:55:54;86980.22;;;4.40;51.93
21623;BME280;10973;46.706;12.340;2023-02-23T00:58:23;86983.44;;;4.33;52.00
21623;BME280;10973;46.706;12.340;2023-02-23T01:00:52;86988.25;;;4.31;52.01
21623;BME280;10973;46.706;12.340;2023-02-23T01:03:19;86990.72;;;4.24;52.00
21623;BME280;10973;46.706;12.340;2023-02-23T01:05:47;86989.88;;;4.20;52.32
21623;BME280;10973;46.706;12.340;2023-02-23T01:08:15;86989.03;;;4.16;52.01
21623;BME280;10973;46.706;12.340;2023-02-23T01:10:43;86978.19;;;4.14;51.78
21623;BME280;10973;46.706;12.340;2023-02-23T01:13:12;86988.56;;;4.10;51.83
21623;BME280;10973;46.706;12.340;2023-02-23T01:15:43;86988.16;;;4.08;52.00
21623;BME280;10973;46.706;12.340;2023-02-23T01:18:10;86986.22;;;4.05;52.43
21623;BME280;10973;46.706;12.340;2023-02-23T01:20:38;86987.31;;;4.04;52.35
21623;BME280;10973;46.706;12.340;2023-02-23T01:23:12;86983.19;;;4.03;51.86
21623;BME280;10973;46.706;12.340;2023-02-23T01:25:43;86974.97;;;4.01;51.77
21623;BME280;10973;46.706;12.340;2023-02-23T01:28:11;86971.59;;;4.01;51.68
21623;BME280;10973;46.706;12.340;2023-02-23T01:30:39;86973.19;;;4.05;51.29
21623;BME280;10973;46.706;12.340;2023-02-23T01:33:07;86972.00;;;4.03;50.81
21623;BME280;10973;46.706;12.340;2023-02-23T01:35:35;86970.53;;;4.02;51.09
21623;BME280;10973;46.706;12.340;2023-02-23T01:38:02;86963.44;;;4.02;50.91
21623;BME280;10973;46.706;12.340;2023-02-23T01:40:31;86964.13;;;3.99;50.96
21623;BME280;10973;46.706;12.340;2023-02-23T01:43:18;86961.44;;;3.96;50.69
21623;BME280;10973;46.706;12.340;2023-02-23T01:45:46;86956.16;;;3.92;51.04
21623;BME280;10973;46.706;12.340;2023-02-23T01:48:21;86957.59;;;3.90;50.77
21623;BME280;10973;46.706;12.340;2023-02-23T01:50:56;86958.38;;;3.90;51.08
21623;BME280;10973;46.706;12.340;2023-02-23T01:53:29;86960.88;;;3.87;50.69
21623;BME280;10973;46.706;12.340;2023-02-23T01:56:07;86950.72;;;3.82;50.84
21623;BME280;10973;46.706;12.340;2023-02-23T01:58:38;86950.59;;;3.75;50.56
21623;BME280;10973;46.706;12.340;2023-02-23T02:01:07;86960.44;;;3.66;50.68
21623;BME280;10973;46.706;12.340;2023-02-23T02:03:39;86953.56;;;3.57;51.05
21623;BME280;10973;46.706;12.340;2023-02-23T02:06:12;86945.94;;;3.49;51.38
21623;BME280;10973;46.706;12.340;2023-02-23T02:08:45;86947.00;;;3.48;51.27
21623;BME280;10973;46.706;12.340;2023-02-23T02:15:13;86941.91;;;3.36;51.34
21623;BME280;10973;46.706;12.340;2023-02-23T02:18:01;86943.75;;;3.35;51.42
21623;BME280;10973;46.706;12.340;2023-02-23T02:41:51;86920.94;;;3.13;51.51
21623;BME280;10973;46.706;12.340;2023-02-23T02:47:17;86923.13;;;3.11;52.14
21623;BME280;10973;46.706;12.340;2023-02-23T02:52:39;86914.97;;;3.13;51.89
21623;BME280;10973;46.706;12.340;2023-02-23T02:55:43;86914.72;;;3.18;52.01
21623;BME280;10973;46.706;12.340;2023-02-23T02:58:16;86922.69;;;3.25;52.19
21623;BME280;10973;46.706;12.340;2023-02-23T03:00:47;86923.03;;;3.23;52.20
21623;BME280;10973;46.706;12.340;2023-02-23T03:03:42;86916.53;;;3.33;52.27
21623;BME280;10973;46.706;12.340;2023-02-23T03:06:11;86924.44;;;3.36;51.53
21623;BME280;10973;46.706;12.340;2023-02-23T03:09:31;86918.28;;;3.44;51.52
21623;BME280;10973;46.706;12.340;2023-02-23T03:17:57;86926.16;;;3.48;52.10
21623;BME280;10973;46.706;12.340;2023-02-23T03:35:04;86914.44;;;3.73;52.35
21623;BME280;10973;46.706;12.340;2023-02-23T03:37:40;86916.00;;;3.78;52.26
21623;BME280;10973;46.706;12.340;2023-02-23T03:40:24;86906.63;;;3.73;52.78
21623;BME280;10973;46.706;12.340;2023-02-23T03:42:56;86911.91;;;3.77;52.60
21623;BME280;10973;46.706;12.340;2023-02-23T03:45:27;86917.59;;;3.82;52.43
21623;BME280;10973;46.706;12.340;2023-02-23T03:47:58;86917.28;;;3.84;52.38
21623;BME280;10973;46.706;12.340;2023-02-23T03:50:55;86917.59;;;3.82;52.17
21623;BME280;10973;46.706;12.340;2023-02-23T03:53:34;86916.91;;;3.85;52.58
21623;BME280;10973;46.706;12.340;2023-02-23T03:56:07;86911.44;;;3.90;52.33
21623;BME280;10973;46.706;12.340;2023-02-23T03:58:46;86918.66;;;3.97;52.61
21623;BME280;10973;46.706;12.340;2023-02-23T04:01:20;86921.31;;;4.00;52.30
21623;BME280;10973;46.706;12.340;2023-02-23T04:03:51;86918.03;;;4.03;52.07
21623;BME280;10973;46.706;12.340;2023-02-23T04:06:25;86922.22;;;4.08;52.65
21623;BME280;10973;46.706;12.340;2023-02-23T04:09:00;86925.59;;;4.08;52.69
21623;BME280;10973;46.706;12.340;2023-02-23T04:12:05;86922.72;;;4.13;52.47
21623;BME280;10973;46.706;12.340;2023-02-23T04:14:44;86927.56;;;4.15;52.84
21623;BME280;10973;46.706;12.340;2023-02-23T04:17:16;86919.81;;;4.18;52.53
21623;BME280;10973;46.706;12.340;2023-02-23T04:23:55;86923.84;;;4.16;53.15
21623;BME280;10973;46.706;12.340;2023-02-23T04:26:23;86917.91;;;4.15;53.14
21623;BME280;10973;46.706;12.340;2023-02-23T04:28:50;86918.31;;;4.17;53.30
21623;BME280;10973;46.706;12.340;2023-02-23T04:31:17;86922.81;;;4.20;53.34
21623;BME280;10973;46.706;12.340;2023-02-23T04:33:45;86924.00;;;4.23;53.34
21623;BME280;10973;46.706;12.340;2023-02-23T04:36:12;86925.97;;;4.29;53.29
21623;BME280;10973;46.706;12.340;2023-02-23T04:38:40;86923.81;;;4.31;53.30
21623;BME280;10973;46.706;12.340;2023-02-23T04:41:08;86925.72;;;4.34;53.22
21623;BME280;10973;46.706;12.340;2023-02-23T04:43:35;86933.53;;;4.34;53.23
21623;BME280;10973;46.706;12.340;2023-02-23T04:46:02;86928.72;;;4.37;53.49
21623;BME280;10973;46.706;12.340;2023-02-23T04:48:30;86929.47;;;4.37;53.56
21623;BME280;10973;46.706;12.340;2023-02-23T04:50:57;86928.00;;;4.36;53.40
21623;BME280;10973;46.706;12.340;2023-02-23T04:53:24;86924.22;;;4.33;53.76
21623;BME280;10973;46.706;12.340;2023-02-23T04:55:51;86926.06;;;4.33;53.74
21623;BME280;10973;46.706;12.340;2023-02-23T04:58:19;86933.94;;;4.37;53.94
21623;BME280;10973;46.706;12.340;2023-02-23T05:00:46;86930.94;;;4.34;53.96
21623;BME280;10973;46.706;12.340;2023-02-23T05:03:14;86935.47;;;4.38;53.59
21623;BME280;10973;46.706;12.340;2023-02-23T05:05:42;86935.47;;;4.38;53.84
21623;BME280;10973;46.706;12.340;2023-02-23T05:08:09;86932.91;;;4.41;53.53
21623;BME280;10973;46.706;12.340;2023-02-23T05:10:37;86929.97;;;4.43;53.74
21623;BME280;10973;46.706;12.340;2023-02-23T05:13:06;86931.06;;;4.42;53.61
21623;BME280;10973;46.706;12.340;2023-02-23T05:15:33;86928.84;;;4.44;53.62
21623;BME280;10973;46.706;12.340;2023-02-23T05:18:01;86929.25;;;4.46;53.20
21623;BME280;10973;46.706;12.340;2023-02-23T05:20:28;86924.47;;;4.48;53.05
21623;BME280;10973;46.706;12.340;2023-02-23T05:22:55;86921.16;;;4.51;52.96
21623;BME280;10973;46.706;12.340;2023-02-23T05:25:23;86924.53;;;4.51;53.16
21623;BME280;10973;46.706;12.340;2023-02-23T05:27:50;86932.00;;;4.53;53.21
21623;BME280;10973;46.706;12.340;2023-02-23T05:30:17;86924.59;;;4.55;53.57
21623;BME280;10973;46.706;12.340;2023-02-23T05:32:45;86921.97;;;4.55;53.62
21623;BME280;10973;46.706;12.340;2023-02-23T05:39:12;86930.50;;;4.52;53.92
21623;BME280;10973;46.706;12.340;2023-02-23T05:41:40;86931.25;;;4.52;53.89
21623;BME280;10973;46.706;12.340;2023-02-23T05:48:21;86923.72;;;4.47;54.25
21623;BME280;10973;46.706;12.340;2023-02-23T05:50:49;86924.47;;;4.48;54.13
21623;BME280;10973;46.706;12.340;2023-02-23T05:53:17;86928.84;;;4.44;54.34
21623;BME280;10973;46.706;12.340;2023-02-23T05:55:44;86932.91;;;4.41;54.37
21623;BME280;10973;46.706;12.340;2023-02-23T06:02:17;86929.75;;;4.32;54.84
21623;BME280;10973;46.706;12.340;2023-02-23T06:04:45;86933.53;;;4.34;54.95
21623;BME280;10973;46.706;12.340;2023-02-23T06:07:12;86925.72;;;4.34;54.57
21623;BME280;10973;46.706;12.340;2023-02-23T06:09:39;86930.59;;;4.36;54.62
21623;BME280;10973;46.706;12.340;2023-02-23T06:12:10;86937.72;;;4.39;54.79
21623;BME280;10973;46.706;12.340;2023-02-23T06:14:37;86932.50;;;4.39;54.62
21623;BME280;10973;46.706;12.340;2023-02-23T06:17:05;86936.22;;;4.38;55.06
21623;BME280;10973;46.706;12.340;2023-02-23T06:19:33;86929.84;;;4.36;55.16
21623;BME280;10973;46.706;12.340;2023-02-23T06:22:00;86937.66;;;4.36;55.44
21623;BME280;10973;46.706;12.340;2023-02-23T06:36:34;86953.44;;;4.23;55.48
21623;BME280;10973;46.706;12.340;2023-02-23T06:43:01;86957.28;;;4.29;55.90
21623;BME280;10973;46.706;12.340;2023-02-23T06:45:29;86955.50;;;4.33;55.68
21623;BME280;10973;46.706;12.340;2023-02-23T06:47:59;86960.03;;;4.37;55.81
21623;BME280;10973;46.706;12.340;2023-02-23T06:50:28;86955.66;;;4.41;55.65
21623;BME280;10973;46.706;12.340;2023-02-23T06:52:55;86961.34;;;4.46;55.71
21623;BME280;10973;46.706;12.340;2023-02-23T06:55:23;86963.25;;;4.49;55.62
21623;BME280;10973;46.706;12.340;2023-02-23T07:01:56;86957.22;;;4.45;55.91
21623;BME280;10973;46.706;12.340;2023-02-23T07:04:24;86964.75;;;4.50;55.94
21623;BME280;10973;46.706;12.340;2023-02-23T07:06:51;86961.88;;;4.55;55.45
21623;BME280;10973;46.706;12.340;2023-02-23T07:17:31;86967.59;;;4.61;55.73
21623;BME280;10973;46.706;12.340;2023-02-23T07:19:58;86966.59;;;4.69;55.70
21623;BME280;10973;46.706;12.340;2023-02-23T07:22:26;86969.34;;;4.76;55.47
21623;BME280;10973;46.706;12.340;2023-02-23T07:29:07;86960.84;;;4.79;56.02
21623;BME280;10973;46.706;12.340;2023-02-23T07:31:34;86973.59;;;4.84;55.99
21623;BME280;10973;46.706;12.340;2023-02-23T07:34:02;86972.50;;;4.85;55.80
21623;BME280;10973;46.706;12.340;2023-02-23T07:36:29;86971.44;;;4.89;55.71
21623;BME280;10973;46.706;12.340;2023-02-23T07:38:57;86975.63;;;4.94;55.90
21623;BME280;10973;46.706;12.340;2023-02-23T07:41:24;86974.56;;;4.95;55.38
21623;BME280;10973;46.706;12.340;2023-02-23T07:43:51;86976.84;;;5.00;55.33
21623;BME280;10973;46.706;12.340;2023-02-23T07:46:19;86979.13;;;5.01;55.30
21623;BME280;10973;46.706;12.340;2023-02-23T07:48:46;86981.78;;;5.05;55.55
21623;BME280;10973;46.706;12.340;2023-02-23T07:51:15;86984.81;;;5.07;55.59
21623;BME280;10973;46.706;12.340;2023-02-23T07:53:43;86987.09;;;5.09;55.49
21623;BME280;10973;46.706;12.340;2023-02-23T08:00:18;86988.66;;;5.13;55.83
21623;BME280;10973;46.706;12.340;2023-02-23T08:02:45;86983.56;;;5.20;55.67
21623;BME280;10973;46.706;12.340;2023-02-23T08:05:13;86981.34;;;5.22;55.76
21623;BME280;10973;46.706;12.340;2023-02-23T08:07:40;86984.03;;;5.26;55.96
21623;BME280;10973;46.706;12.340;2023-02-23T08:10:08;86983.72;;;5.31;55.90
21623;BME280;10973;46.706;12.340;2023-02-23T08:12:36;86990.53;;;5.35;55.69
21623;BME280;10973;46.706;12.340;2023-02-23T08:15:11;86982.06;;;5.42;55.87
21623;BME280;10973;46.706;12.340;2023-02-23T08:17:39;86986.63;;;5.48;55.91
21623;BME280;10973;46.706;12.340;2023-02-23T08:20:07;86990.44;;;5.54;55.54
21623;BME280;10973;46.706;12.340;2023-02-23T08:22:35;86992.84;;;5.63;55.57
21623;BME280;10973;46.706;12.340;2023-02-23T08:25:16;86992.97;;;5.70;55.19
21623;BME280;10973;46.706;12.340;2023-02-23T08:27:44;86981.78;;;5.73;55.38
21623;BME280;10973;46.706;12.340;2023-02-23T08:30:14;86989.47;;;5.85;55.07
21623;BME280;10973;46.706;12.340;2023-02-23T08:36:48;86982.94;;;5.98;54.58
21623;BME280;10973;46.706;12.340;2023-02-23T08:39:16;86980.41;;;6.05;54.42
21623;BME280;10973;46.706;12.340;2023-02-23T08:41:43;86986.84;;;6.11;54.28
21623;BME280;10973;46.706;12.340;2023-02-23T08:44:11;86983.94;;;6.16;54.21
21623;BME280;10973;46.706;12.340;2023-02-23T08:46:42;86983.28;;;6.23;53.93
21623;BME280;10973;46.706;12.340;2023-02-23T08:49:10;86979.25;;;6.29;53.61
21623;BME280;10973;46.706;12.340;2023-02-23T08:51:38;86984.94;;;6.34;53.25
21623;BME280;10973;46.706;12.340;2023-02-23T08:54:06;86977.56;;;6.43;52.94
21623;BME280;10973;46.706;12.340;2023-02-23T08:56:34;86984.41;;;6.52;52.59
21623;BME280;10973;46.706;12.340;2023-02-23T09:03:01;86985.78;;;6.72;51.81
21623;BME280;10973;46.706;12.340;2023-02-23T09:09:36;86991.22;;;6.93;51.33
21623;BME280;10973;46.706;12.340;2023-02-23T09:12:04;86986.16;;;7.07;50.88
21623;BME280;10973;46.706;12.340;2023-02-23T09:14:31;86988.91;;;7.17;50.37
21623;BME280;10973;46.706;12.340;2023-02-23T09:16:58;86987.53;;;7.31;49.93
21623;BME280;10973;46.706;12.340;2023-02-23T09:19:26;86983.50;;;7.40;49.56
21623;BME280;10973;46.706;12.340;2023-02-23T09:21:53;86982.06;;;7.50;49.19
21623;BME280;10973;46.706;12.340;2023-02-23T09:24:21;86984.44;;;7.58;48.71
21623;BME280;10973;46.706;12.340;2023-02-23T09:26:48;86981.09;;;7.65;48.21
21623;BME280;10973;46.706;12.340;2023-02-23T09:29:15;86986.81;;;7.74;47.98
21623;BME280;10973;46.706;12.340;2023-02-23T09:31:43;86981.63;;;7.81;47.68
21623;BME280;10973;46.706;12.340;2023-02-23T09:34:10;86984.25;;;7.84;47.50
21623;BME280;10973;46.706;12.340;2023-02-23T09:36:37;86979.09;;;7.95;48.01
21623;BME280;10973;46.706;12.340;2023-02-23T09:39:05;86979.50;;;7.97;47.54
21623;BME280;10973;46.706;12.340;2023-02-23T09:45:56;86984.78;;;8.04;47.06
21623;BME280;10973;46.706;12.340;2023-02-23T09:48:27;86991.25;;;8.17;46.78
21623;BME280;10973;46.706;12.340;2023-02-23T09:50:59;86981.22;;;8.26;46.65
21623;BME280;10973;46.706;12.340;2023-02-23T09:53:56;86976.75;;;8.34;46.85
21623;BME280;10973;46.706;12.340;2023-02-23T10:00:26;86986.53;;;8.37;46.31
21623;BME280;10973;46.706;12.340;2023-02-23T10:03:30;86979.41;;;8.41;45.83
21623;BME280;10973;46.706;12.340;2023-02-23T10:06:06;86983.94;;;8.40;45.99
21623;BME280;10973;46.706;12.340;2023-02-23T10:11:36;86977.22;;;8.46;46.14
21623;BME280;10973;46.706;12.340;2023-02-23T10:23:02;86978.44;;;8.67;45.60
21623;BME280;10973;46.706;12.340;2023-02-23T10:25:36;86983.34;;;8.72;45.77
21623;BME280;10973;46.706;12.340;2023-02-23T10:28:18;86979.97;;;8.71;45.67
21623;BME280;10973;46.706;12.340;2023-02-23T10:30:49;86986.75;;;8.76;45.73
21623;BME280;10973;46.706;12.340;2023-02-23T10:33:31;86981.88;;;8.74;45.69
21623;BME280;10973;46.706;12.340;2023-02-23T10:36:28;86980.31;;;8.66;45.95
21623;BME280;10973;46.706;12.340;2023-02-23T10:38:57;86982.56;;;8.64;46.06
21623;BME280;10973;46.706;12.340;2023-02-23T10:41:25;86983.34;;;8.72;46.10
21623;BME280;10973;46.706;12.340;2023-02-23T10:43:52;86982.97;;;8.73;46.02
21623;BME280;10973;46.706;12.340;2023-02-23T10:50:46;86977.75;;;8.84;45.63
21623;BME280;10973;46.706;12.340;2023-02-23T10:57:31;86971.03;;;8.86;45.52
21623;BME280;10973;46.706;12.340;2023-02-23T11:04:23;86969.97;;;9.01;45.38
21623;BME280;10973;46.706;12.340;2023-02-23T11:09:38;86965.44;;;9.02;44.66
21623;BME280;10973;46.706;12.340;2023-02-23T11:12:24;86971.44;;;8.95;44.48
21623;BME280;10973;46.706;12.340;2023-02-23T11:14:55;86957.91;;;8.93;44.63
21623;BME280;10973;46.706;12.340;2023-02-23T11:17:34;86961.69;;;8.96;44.93
21623;BME280;10973;46.706;12.340;2023-02-23T11:22:44;86962.06;;;8.94;44.77
21623;BME280;10973;46.706;12.340;2023-02-23T11:25:24;86960.94;;;9.02;44.50
21623;BME280;10973;46.706;12.340;2023-02-23T11:27:55;86955.66;;;8.92;44.64
21623;BME280;10973;46.706;12.340;2023-02-23T11:30:34;86947.56;;;9.43;43.96
21623;BME280;10973;46.706;12.340;2023-02-23T11:33:05;86951.34;;;10.08;42.36
21623;BME280;10973;46.706;12.340;2023-02-23T11:35:34;86945.53;;;11.02;40.54
21623;BME280;10973;46.706;12.340;2023-02-23T11:47:40;86936.81;;;14.81;32.82
21623;BME280;10973;46.706;12.340;2023-02-23T11:50:30;86925.66;;;15.52;32.17
21623;BME280;10973;46.706;12.340;2023-02-23T11:53:15;86917.41;;;16.02;31.03
21623;BME280;10973;46.706;12.340;2023-02-23T11:55:51;86921.94;;;16.21;29.99
21623;BME280;10973;46.706;12.340;2023-02-23T11:58:33;86917.47;;;16.82;29.78
21623;BME280;10973;46.706;12.340;2023-02-23T12:01:07;86903.69;;;17.16;29.09
21623;BME280;10973;46.706;12.340;2023-02-23T12:03:44;86914.50;;;17.54;29.03
21623;BME280;10973;46.706;12.340;2023-02-23T12:06:24;86907.88;;;17.87;27.88
21623;BME280;10973;46.706;12.340;2023-02-23T12:08:53;86901.41;;;18.13;27.30
21623;BME280;10973;46.706;12.340;2023-02-23T12:11:26;86903.44;;;18.34;27.05
21623;BME280;10973;46.706;12.340;2023-02-23T12:14:11;86905.69;;;18.61;26.56
21623;BME280;10973;46.706;12.340;2023-02-23T12:16:49;86903.03;;;18.74;26.25
21623;BME280;10973;46.706;12.340;2023-02-23T12:19:33;86894.91;;;18.77;26.09
21623;BME280;10973;46.706;12.340;2023-02-23T12:26:17;86886.81;;;18.81;26.24
21623;BME280;10973;46.706;12.340;2023-02-23T12:29:03;86885.50;;;18.73;26.17
21623;BME280;10973;46.706;12.340;2023-02-23T12:31:55;86881.38;;;18.59;26.39
21623;BME280;10973;46.706;12.340;2023-02-23T12:34:43;86877.84;;;18.49;26.25
21623;BME280;10973;46.706;12.340;2023-02-23T12:39:51;86876.66;;;18.00;27.08
21623;BME280;10973;46.706;12.340;2023-02-23T12:42:45;86870.81;;;17.51;27.59
21623;BME280;10973;46.706;12.340;2023-02-23T12:45:51;86872.31;;;17.24;28.02
21623;BME280;10973;46.706;12.340;2023-02-23T12:51:35;86871.97;;;17.22;28.14
21623;BME280;10973;46.706;12.340;2023-02-23T12:54:16;86872.22;;;16.98;28.17
21623;BME280;10973;46.706;12.340;2023-02-23T13:00:05;86862.50;;;16.92;28.40
21623;BME280;10973;46.706;12.340;2023-02-23T13:06:14;86863.53;;;16.66;28.87
21623;BME280;10973;46.706;12.340;2023-02-23T13:09:20;86851.47;;;16.61;28.84
21623;BME280;10973;46.706;12.340;2023-02-23T13:12:21;86855.31;;;16.60;28.84
21623;BME280;10973;46.706;12.340;2023-02-23T13:19:31;86849.31;;;16.56;29.50
21623;BME280;10973;46.706;12.340;2023-02-23T13:24:50;86846.78;;;16.49;30.38
21623;BME280;10973;46.706;12.340;2023-02-23T13:27:37;86843.91;;;16.43;29.71
21623;BME280;10973;46.706;12.340;2023-02-23T13:30:11;86842.06;;;16.24;30.34
21623;BME280;10973;46.706;12.340;2023-02-23T13:36:46;86849.91;;;15.63;31.42
21623;BME280;10973;46.706;12.340;2023-02-23T13:42:47;86845.84;;;15.20;31.69
21623;BME280;10973;46.706;12.340;2023-02-23T13:51:41;86844.97;;;14.87;31.98
21623;BME280;10973;46.706;12.340;2023-02-23T13:56:51;86844.22;;;14.86;32.61
21623;BME280;10973;46.706;12.340;2023-02-23T13:59:27;86850.41;;;14.80;32.38
21623;BME280;10973;46.706;12.340;2023-02-23T14:02:05;86849.66;;;14.79;32.91
21623;BME280;10973;46.706;12.340;2023-02-23T14:05:04;86852.44;;;14.72;32.62
21623;BME280;10973;46.706;12.340;2023-02-23T14:07:40;86849.19;;;14.65;33.81
21623;BME280;10973;46.706;12.340;2023-02-23T14:10:19;86849.44;;;14.70;32.63
21623;BME280;10973;46.706;12.340;2023-02-23T14:13:26;86846.13;;;14.66;33.28
21623;BME280;10973;46.706;12.340;2023-02-23T14:16:16;86850.94;;;14.71;33.11
21623;BME280;10973;46.706;12.340;2023-02-23T14:21:34;86846.47;;;14.88;31.71
21623;BME280;10973;46.706;12.340;2023-02-23T14:24:26;86849.88;;;14.88;31.57
21623;BME280;10973;46.706;12.340;2023-02-23T14:29:30;86843.16;;;15.04;31.27
21623;BME280;10973;46.706;12.340;2023-02-23T14:34:55;86842.31;;;15.26;30.96
21623;BME280;10973;46.706;12.340;2023-02-23T14:37:39;86854.09;;;15.25;30.94
21623;BME280;10973;46.706;12.340;2023-02-23T14:40:29;86857.97;;;15.21;30.72
21623;BME280;10973;46.706;12.340;2023-02-23T14:43:02;86849.53;;;15.26;30.62
21623;BME280;10973;46.706;12.340;2023-02-23T14:45:37;86848.88;;;15.38;30.49
21623;BME280;10973;46.706;12.340;2023-02-23T14:48:10;86855.94;;;15.28;30.60
21623;BME280;10973;46.706;12.340;2023-02-23T14:50:38;86855.19;;;15.08;30.85
21623;BME280;10973;46.706;12.340;2023-02-23T14:53:17;86853.53;;;14.75;30.94
21623;BME280;10973;46.706;12.340;2023-02-23T14:55:45;86860.94;;;14.41;31.61
21623;BME280;10973;46.706;12.340;2023-02-23T14:58:29;86863.84;;;14.00;32.30
21623;BME280;10973;46.706;12.340;2023-02-23T15:05:15;86859.69;;;13.19;33.73
21623;BME280;10973;46.706;12.340;2023-02-23T15:07:43;86857.34;;;12.90;33.91
21623;BME280;10973;46.706;12.340;2023-02-23T15:12:52;86856.66;;;12.53;34.67
21623;BME280;10973;46.706;12.340;2023-02-23T15:15:24;86864.72;;;12.39;35.15
21623;BME280;10973;46.706;12.340;2023-02-23T15:17:57;86855.84;;;12.18;35.50
21623;BME280;10973;46.706;12.340;2023-02-23T15:20:32;86855.34;;;11.90;35.70
21623;BME280;10973;46.706;12.340;2023-02-23T15:23:03;86860.75;;;11.76;36.19
21623;BME280;10973;46.706;12.340;2023-02-23T15:29:32;86868.19;;;11.33;36.97
21623;BME280;10973;46.706;12.340;2023-02-23T15:32:29;86863.38;;;11.17;37.37
21623;BME280;10973;46.706;12.340;2023-02-23T15:34:56;86864.16;;;11.07;37.64
21623;BME280;10973;46.706;12.340;2023-02-23T15:37:39;86872.88;;;10.97;37.76
21623;BME280;10973;46.706;12.340;2023-02-23T15:40:20;86867.69;;;10.83;38.04
21623;BME280;10973;46.706;12.340;2023-02-23T15:42:56;86872.56;;;10.85;37.98
21623;BME280;10973;46.706;12.340;2023-02-23T15:45:34;86872.59;;;10.70;38.36
21623;BME280;10973;46.706;12.340;2023-02-23T15:48:06;86877.91;;;10.56;38.30
21623;BME280;10973;46.706;12.340;2023-02-23T15:50:41;86875.31;;;10.53;38.64
21623;BME280;10973;46.706;12.340;2023-02-23T15:53:22;86880.22;;;10.51;38.66
21623;BME280;10973;46.706;12.340;2023-02-23T15:55:56;86880.59;;;10.49;38.58
21623;BME280;10973;46.706;12.340;2023-02-23T15:58:29;86877.63;;;10.40;38.46
21623;BME280;10973;46.706;12.340;2023-02-23T16:01:08;86882.50;;;10.35;38.79
21623;BME280;10973;46.706;12.340;2023-02-23T16:03:39;86884.03;;;10.29;38.79
21623;BME280;10973;46.706;12.340;2023-02-23T16:08:59;86878.41;;;10.20;39.03
21623;BME280;10973;46.706;12.340;2023-02-23T16:11:33;86888.97;;;10.13;39.27
21623;BME280;10973;46.706;12.340;2023-02-23T16:14:04;86882.94;;;10.12;39.46
21623;BME280;10973;46.706;12.340;2023-02-23T16:16:40;86890.06;;;10.08;39.34
21623;BME280;10973;46.706;12.340;2023-02-23T16:19:11;86893.81;;;10.03;39.63
21623;BME280;10973;46.706;12.340;2023-02-23T16:21:40;86892.31;;;10.02;39.72
21623;BME280;10973;46.706;12.340;2023-02-23T16:24:13;86890.06;;;9.97;39.90
21623;BME280;10973;46.706;12.340;2023-02-23T16:26:59;86888.56;;;9.89;40.05
21623;BME280;10973;46.706;12.340;2023-02-23T16:29:37;86892.34;;;9.92;39.82
21623;BME280;10973;46.706;12.340;2023-02-23T16:32:17;86897.22;;;9.83;40.06
21623;BME280;10973;46.706;12.340;2023-02-23T16:35:00;86897.59;;;9.81;40.28
21623;BME280;10973;46.706;12.340;2023-02-23T16:37:27;86895.34;;;9.76;40.33
21623;BME280;10973;46.706;12.340;2023-02-23T16:39:55;86896.09;;;9.73;40.45
21623;BME280;10973;46.706;12.340;2023-02-23T16:42:31;86899.47;;;9.70;40.47
21623;BME280;10973;46.706;12.340;2023-02-23T16:44:59;86891.97;;;9.65;40.68
21623;BME280;10973;46.706;12.340;2023-02-23T16:47:45;86897.22;;;9.62;40.90
21623;BME280;10973;46.706;12.340;2023-02-23T16:50:18;86899.47;;;9.60;40.96
21623;BME280;10973;46.706;12.340;2023-02-23T16:52:50;86901.72;;;9.54;40.99
21623;BME280;10973;46.706;12.340;2023-02-23T16:59:17;86901.34;;;9.38;41.48
21623;BME280;10973;46.706;12.340;2023-02-23T17:01:45;86912.97;;;9.37;41.48
21623;BME280;10973;46.706;12.340;2023-02-23T17:08:18;86915.97;;;9.28;41.61
21623;BME280;10973;46.706;12.340;2023-02-23T17:10:48;86916.34;;;9.30;41.77
21623;BME280;10973;46.706;12.340;2023-02-23T17:13:24;86912.97;;;9.30;42.05
21623;BME280;10973;46.706;12.340;2023-02-23T17:15:54;86908.44;;;9.27;41.95
21623;BME280;10973;46.706;12.340;2023-02-23T17:18:26;86912.19;;;9.22;42.25
21623;BME280;10973;46.706;12.340;2023-02-23T17:25:00;86915.91;;;9.11;42.20
21623;BME280;10973;46.706;12.340;2023-02-23T17:27:27;86928.31;;;9.10;42.46
21623;BME280;10973;46.706;12.340;2023-02-23T17:29:56;86927.91;;;9.05;42.79
21623;BME280;10973;46.706;12.340;2023-02-23T17:32:23;86927.16;;;9.01;42.83
21623;BME280;10973;46.706;12.340;2023-02-23T17:34:50;86926.03;;;9.02;42.81